Time;durP1;ratioP1;P1;durP2;ratioP2;P2;SDS_P1;SDS_P2;PMS_P1;PMS_P2;Temp;Humidity;BMP_temperature;BMP_pressure;BME280_temperature;BME280_humidity;BME280_pressure;Samples;Min_cycle;Max_cycle;Signal;HPM_P1;HPM_P2
2024/01/31 00:01:41;;;;;;;9.43;6.63;;;;;;;;;;5112341;28;20674;-81
2024/01/31 00:04:09;;;;;;;15.30;9.43;;;;;;;;;;5098966;28;20207;-82
2024/01/31 00:06:36;;;;;;;16.37;9.40;;;;;;;;;;5112587;28;20259;-81
2024/01/31 00:09:03;;;;;;;11.23;6.87;;;;;;;;;;5098995;28;20204;-81
2024/01/31 00:11:30;;;;;;;6.80;5.03;;;;;;;;;;5111989;28;20307;-82
2024/01/31 00:13:58;;;;;;;6.43;5.43;;;;;;;;;;5111913;28;20226;-81
2024/01/31 00:16:25;;;;;;;7.73;5.67;;;;;;;;;;5112110;28;20203;-82
2024/01/31 00:18:51;;;;;;;7.73;5.77;;;;;;;;;;5109928;28;20230;-81
2024/01/31 00:21:20;;;;;;;6.57;5.10;;;;;;;;;;5092171;28;20596;-81
2024/01/31 00:23:47;;;;;;;9.70;6.33;;;;;;;;;;5094312;28;20269;-81
2024/01/31 00:26:14;;;;;;;7.67;5.70;;;;;;;;;;5112510;28;20195;-81
2024/01/31 00:28:40;;;;;;;6.37;5.13;;;;;;;;;;5111859;28;20210;-81
2024/01/31 00:31:07;;;;;;;5.93;4.47;;;;;;;;;;5111961;28;20235;-81
2024/01/31 00:33:34;;;;;;;7.10;4.70;;;;;;;;;;5096085;28;20204;-80
2024/01/31 00:36:01;;;;;;;6.73;5.17;;;;;;;;;;5101031;28;20203;-81
2024/01/31 00:38:29;;;;;;;6.57;4.00;;;;;;;;;;5108443;28;20228;-81
2024/01/31 00:40:56;;;;;;;7.90;5.50;;;;;;;;;;5091373;28;20211;-81
2024/01/31 00:43:22;;;;;;;8.73;6.37;;;;;;;;;;5107739;28;20206;-81
2024/01/31 00:45:49;;;;;;;12.47;7.33;;;;;;;;;;5111956;28;20196;-82
2024/01/31 00:48:16;;;;;;;7.70;5.90;;;;;;;;;;5111451;28;20677;-82
2024/01/31 00:50:43;;;;;;;6.90;5.37;;;;;;;;;;5111182;28;20224;-86
2024/01/31 00:53:10;;;;;;;11.43;7.27;;;;;;;;;;5098328;28;20207;-81
2024/01/31 00:55:38;;;;;;;6.17;4.93;;;;;;;;;;5101292;28;20212;-82
2024/01/31 00:58:05;;;;;;;9.67;6.53;;;;;;;;;;5108774;28;20233;-82
2024/01/31 01:00:32;;;;;;;8.80;5.73;;;;;;;;;;5111677;28;20623;-82
2024/01/31 01:03:00;;;;;;;9.37;6.13;;;;;;;;;;5111041;28;20200;-82
2024/01/31 01:05:27;;;;;;;6.27;5.00;;;;;;;;;;5100289;28;20204;-82
2024/01/31 01:07:54;;;;;;;7.17;5.40;;;;;;;;;;5109423;28;20195;-82
2024/01/31 01:10:21;;;;;;;7.80;4.93;;;;;;;;;;5110875;28;20195;-81
2024/01/31 01:12:49;;;;;;;8.53;5.90;;;;;;;;;;5110955;28;20203;-81
2024/01/31 01:15:18;;;;;;;6.57;5.03;;;;;;;;;;5111303;28;20294;-81
2024/01/31 01:17:46;;;;;;;6.43;5.13;;;;;;;;;;5105320;28;20752;-82
2024/01/31 01:20:12;;;;;;;7.17;5.60;;;;;;;;;;5103845;28;20597;-81
2024/01/31 01:22:42;;;;;;;7.93;5.57;;;;;;;;;;5111098;28;20191;-81
2024/01/31 01:25:09;;;;;;;6.60;5.13;;;;;;;;;;5098440;28;20265;-81
2024/01/31 01:27:36;;;;;;;6.47;4.73;;;;;;;;;;5110875;28;20300;-80
2024/01/31 01:30:05;;;;;;;5.07;4.53;;;;;;;;;;5111220;28;20224;-80
2024/01/31 01:32:31;;;;;;;11.33;6.97;;;;;;;;;;5104018;28;20208;-82
2024/01/31 01:35:01;;;;;;;7.40;5.77;;;;;;;;;;5105078;28;20203;-83
2024/01/31 01:37:27;;;;;;;6.80;5.13;;;;;;;;;;5110782;28;20223;-82
2024/01/31 01:39:54;;;;;;;7.03;5.33;;;;;;;;;;5110710;28;20210;-82
2024/01/31 01:42:21;;;;;;;5.80;5.00;;;;;;;;;;5103510;28;20215;-82
2024/01/31 01:44:48;;;;;;;7.13;4.80;;;;;;;;;;5105179;28;20208;-82
2024/01/31 01:47:17;;;;;;;7.60;5.07;;;;;;;;;;5102987;28;20207;-82
2024/01/31 01:49:44;;;;;;;9.00;6.07;;;;;;;;;;5093284;28;20208;-80
2024/01/31 01:52:12;;;;;;;7.73;5.47;;;;;;;;;;5103207;28;20593;-81
2024/01/31 01:54:39;;;;;;;7.93;5.80;;;;;;;;;;5114625;28;20214;-81
2024/01/31 01:57:06;;;;;;;6.27;5.37;;;;;;;;;;5114686;28;20199;-80
2024/01/31 01:59:35;;;;;;;9.07;6.37;;;;;;;;;;5112877;28;20674;-80
2024/01/31 02:02:02;;;;;;;7.07;5.47;;;;;;;;;;5101016;28;20204;-85
2024/01/31 02:04:30;;;;;;;6.87;5.77;;;;;;;;;;5101451;28;20203;-81
2024/01/31 02:07:00;;;;;;;6.27;4.90;;;;;;;;;;5113946;28;20218;-81
2024/01/31 02:09:27;;;;;;;7.23;5.57;;;;;;;;;;5102068;28;20204;-81
2024/01/31 02:11:54;;;;;;;7.77;5.57;;;;;;;;;;5099813;28;20231;-80
2024/01/31 02:14:20;;;;;;;7.17;5.47;;;;;;;;;;5094001;28;20204;-80
2024/01/31 02:16:47;;;;;;;6.70;5.30;;;;;;;;;;5108887;28;20199;-80
2024/01/31 02:19:14;;;;;;;8.67;5.50;;;;;;;;;;5114609;28;20234;-80
2024/01/31 02:21:43;;;;;;;5.83;4.97;;;;;;;;;;5113261;28;20264;-80
2024/01/31 02:24:12;;;;;;;7.57;5.87;;;;;;;;;;5107912;28;20679;-80
2024/01/31 02:26:38;;;;;;;7.37;5.83;;;;;;;;;;5094133;28;20286;-81
2024/01/31 02:29:05;;;;;;;6.63;5.00;;;;;;;;;;5107259;28;20273;-81
2024/01/31 02:31:32;;;;;;;5.40;4.90;;;;;;;;;;5106294;28;20214;-80
2024/01/31 02:34:02;;;;;;;8.77;5.43;;;;;;;;;;5100640;28;20581;-80
2024/01/31 02:36:28;;;;;;;9.10;6.13;;;;;;;;;;5100845;28;20211;-82
2024/01/31 02:38:55;;;;;;;20.50;10.57;;;;;;;;;;5113295;28;20239;-81
2024/01/31 02:41:24;;;;;;;13.90;9.10;;;;;;;;;;5101351;28;20589;-81
2024/01/31 02:43:51;;;;;;;20.80;12.77;;;;;;;;;;5100547;28;20207;-81
2024/01/31 02:46:17;;;;;;;20.97;11.43;;;;;;;;;;5113574;28;20226;-80
2024/01/31 02:48:45;;;;;;;16.00;10.63;;;;;;;;;;5093549;28;20634;-79
2024/01/31 02:51:12;;;;;;;11.87;8.03;;;;;;;;;;5093468;28;20235;-81
2024/01/31 02:53:39;;;;;;;7.80;6.40;;;;;;;;;;5100489;28;20287;-80
2024/01/31 02:56:08;;;;;;;11.07;7.80;;;;;;;;;;5113510;28;20210;-80
2024/01/31 02:58:36;;;;;;;9.63;6.53;;;;;;;;;;5113507;28;20226;-80
2024/01/31 03:01:06;;;;;;;8.87;6.40;;;;;;;;;;5112240;28;20207;-80
2024/01/31 03:03:33;;;;;;;6.37;5.73;;;;;;;;;;5104848;28;20212;-80
2024/01/31 03:05:59;;;;;;;6.90;6.20;;;;;;;;;;5108872;28;20214;-81
2024/01/31 03:08:26;;;;;;;13.07;7.17;;;;;;;;;;5113562;28;20207;-81
2024/01/31 03:10:53;;;;;;;9.67;6.30;;;;;;;;;;5110798;28;20216;-79
2024/01/31 03:13:20;;;;;;;8.13;6.03;;;;;;;;;;5102972;28;20673;-79
2024/01/31 03:15:48;;;;;;;7.90;5.77;;;;;;;;;;5113574;28;20211;-81
2024/01/31 03:18:15;;;;;;;8.13;6.03;;;;;;;;;;5113398;28;20314;-80
2024/01/31 03:20:42;;;;;;;7.77;5.83;;;;;;;;;;5113543;28;20208;-81
2024/01/31 03:23:09;;;;;;;9.87;6.50;;;;;;;;;;5106033;28;20208;-80
2024/01/31 03:25:34;;;;;;;10.30;5.77;;;;;;;;;;5095939;28;20201;-81
2024/01/31 03:28:01;;;;;;;9.50;6.47;;;;;;;;;;5103293;28;20219;-82
2024/01/31 03:30:28;;;;;;;9.30;5.77;;;;;;;;;;5109151;28;20236;-82
2024/01/31 03:33:00;;;;;;;7.40;6.10;;;;;;;;;;5103871;28;20666;-82
2024/01/31 03:35:27;;;;;;;7.63;6.37;;;;;;;;;;5113121;28;20207;-79
2024/01/31 03:37:53;;;;;;;5.73;5.00;;;;;;;;;;5112708;28;20210;-78
2024/01/31 03:40:21;;;;;;;28.20;12.70;;;;;;;;;;5109667;28;20222;-80
2024/01/31 03:42:48;;;;;;;123.33;58.50;;;;;;;;;;5113079;28;20215;-79
2024/01/31 03:45:15;;;;;;;94.10;45.40;;;;;;;;;;5099092;28;20211;-79
2024/01/31 03:47:42;;;;;;;39.53;25.33;;;;;;;;;;5112688;28;20576;-80
2024/01/31 03:50:11;;;;;;;25.90;15.70;;;;;;;;;;5112231;28;20226;-78
2024/01/31 03:52:37;;;;;;;12.83;7.37;;;;;;;;;;5112846;28;20200;-78
2024/01/31 03:55:05;;;;;;;12.73;7.17;;;;;;;;;;5098906;28;20207;-78
2024/01/31 03:57:32;;;;;;;8.20;6.17;;;;;;;;;;5113593;28;20214;-77
2024/01/31 04:00:06;;;;;;;7.50;6.70;;;;;;;;;;5113669;28;20231;-79
2024/01/31 04:02:33;;;;;;;10.23;6.63;;;;;;;;;;5112091;28;20199;-78
2024/01/31 04:05:00;;;;;;;8.30;6.13;;;;;;;;;;5111490;28;20203;-77
2024/01/31 04:07:29;;;;;;;7.87;5.60;;;;;;;;;;5112366;28;20885;-79
2024/01/31 04:09:56;;;;;;;12.17;7.63;;;;;;;;;;5092218;28;20686;-82
2024/01/31 04:12:23;;;;;;;14.73;9.80;;;;;;;;;;5104756;28;20627;-78
2024/01/31 04:14:49;;;;;;;16.57;10.53;;;;;;;;;;5111861;28;20713;-81
2024/01/31 04:17:16;;;;;;;8.23;6.10;;;;;;;;;;5098965;28;20818;-81
2024/01/31 04:19:48;;;;;;;6.80;5.63;;;;;;;;;;5091983;28;20228;-81
2024/01/31 04:22:15;;;;;;;8.10;5.30;;;;;;;;;;5094399;28;20847;-79
2024/01/31 04:24:43;;;;;;;5.87;4.80;;;;;;;;;;5102506;28;20990;-78
2024/01/31 04:27:10;;;;;;;7.30;5.03;;;;;;;;;;5105532;28;20208;-79
2024/01/31 04:29:38;;;;;;;6.50;5.43;;;;;;;;;;5101703;28;20476;-79
2024/01/31 04:32:06;;;;;;;8.90;6.10;;;;;;;;;;5098820;28;20239;-79
2024/01/31 04:34:34;;;;;;;7.07;5.47;;;;;;;;;;5112157;28;20804;-79
2024/01/31 04:37:01;;;;;;;5.13;4.63;;;;;;;;;;5094153;28;20450;-80
2024/01/31 04:39:28;;;;;;;7.37;6.13;;;;;;;;;;5090550;28;20494;-80
2024/01/31 04:41:56;;;;;;;6.53;5.03;;;;;;;;;;5109297;28;20453;-83
2024/01/31 04:44:23;;;;;;;8.03;5.87;;;;;;;;;;5111828;28;20204;-81
2024/01/31 04:46:50;;;;;;;6.70;4.97;;;;;;;;;;5106643;28;20725;-81
2024/01/31 04:49:17;;;;;;;6.90;5.60;;;;;;;;;;5102765;28;20234;-81
2024/01/31 04:51:44;;;;;;;7.23;5.33;;;;;;;;;;5100567;28;20678;-84
2024/01/31 04:54:10;;;;;;;8.73;6.00;;;;;;;;;;5095064;28;20503;-80
2024/01/31 04:56:37;;;;;;;8.93;5.93;;;;;;;;;;5111376;28;20199;-79
2024/01/31 04:59:06;;;;;;;12.13;8.10;;;;;;;;;;5097857;28;20492;-80
2024/01/31 05:01:32;;;;;;;9.93;7.30;;;;;;;;;;5110053;28;20441;-80
2024/01/31 05:03:59;;;;;;;9.07;6.53;;;;;;;;;;5111313;28;20670;-81
2024/01/31 05:06:26;;;;;;;6.80;5.43;;;;;;;;;;5097268;28;20256;-80
2024/01/31 05:08:53;;;;;;;5.73;4.70;;;;;;;;;;5111296;28;20206;-80
2024/01/31 05:11:20;;;;;;;6.03;4.27;;;;;;;;;;5092062;28;20477;-82
2024/01/31 05:13:46;;;;;;;13.17;7.83;;;;;;;;;;5108920;28;20225;-80
2024/01/31 05:16:14;;;;;;;12.83;6.97;;;;;;;;;;5111177;28;20203;-80
2024/01/31 05:18:41;;;;;;;10.27;6.97;;;;;;;;;;5108701;28;20223;-83
2024/01/31 05:21:10;;;;;;;10.23;8.10;;;;;;;;;;5101637;28;20227;-83
2024/01/31 05:23:37;;;;;;;11.40;8.60;;;;;;;;;;5095012;28;20975;-79
2024/01/31 05:26:08;;;;;;;11.73;8.93;;;;;;;;;;5115157;28;20453;-82
2024/01/31 05:28:34;;;;;;;17.33;11.87;;;;;;;;;;5114201;28;20234;-83
2024/01/31 05:31:01;;;;;;;15.87;10.93;;;;;;;;;;5102741;28;20239;-83
2024/01/31 05:33:29;;;;;;;15.17;10.20;;;;;;;;;;5108659;28;20208;-83
2024/01/31 05:35:58;;;;;;;12.67;8.80;;;;;;;;;;5108477;28;20885;-83
2024/01/31 05:38:25;;;;;;;20.67;12.43;;;;;;;;;;5115234;28;20200;-81
2024/01/31 05:40:52;;;;;;;29.90;17.50;;;;;;;;;;5114655;28;20876;-83
2024/01/31 05:43:19;;;;;;;38.80;24.33;;;;;;;;;;5114321;28;20200;-83
2024/01/31 05:45:46;;;;;;;50.17;29.40;;;;;;;;;;5114747;28;20279;-84
2024/01/31 05:48:14;;;;;;;28.27;17.60;;;;;;;;;;5094793;28;20193;-82
2024/01/31 05:50:42;;;;;;;17.30;10.60;;;;;;;;;;5108149;28;20445;-83
2024/01/31 05:53:09;;;;;;;18.40;9.87;;;;;;;;;;5101885;28;20199;-83
2024/01/31 05:55:37;;;;;;;12.37;9.00;;;;;;;;;;5114359;28;21016;-83
2024/01/31 05:58:04;;;;;;;23.60;11.73;;;;;;;;;;5114439;28;20997;-83
2024/01/31 06:00:30;;;;;;;25.10;13.17;;;;;;;;;;5113320;28;20234;-83
2024/01/31 06:02:59;;;;;;;14.00;9.37;;;;;;;;;;5102533;28;20199;-83
2024/01/31 06:05:26;;;;;;;12.23;9.77;;;;;;;;;;5115051;28;20466;-83
2024/01/31 06:07:54;;;;;;;12.80;9.33;;;;;;;;;;5114886;28;20517;-84
2024/01/31 06:10:21;;;;;;;12.87;9.37;;;;;;;;;;5112174;28;20819;-83
2024/01/31 06:12:48;;;;;;;8.93;8.03;;;;;;;;;;5103140;28;20445;-83
2024/01/31 06:15:15;;;;;;;11.37;8.20;;;;;;;;;;5114382;28;20446;-82
2024/01/31 06:17:42;;;;;;;12.83;8.13;;;;;;;;;;5114788;28;20464;-83
2024/01/31 06:20:10;;;;;;;11.23;7.70;;;;;;;;;;5112056;28;20317;-83
2024/01/31 06:22:37;;;;;;;10.17;8.97;;;;;;;;;;5098022;28;20964;-82
2024/01/31 06:25:05;;;;;;;10.60;8.00;;;;;;;;;;5093928;28;20450;-83
2024/01/31 06:27:32;;;;;;;11.63;8.23;;;;;;;;;;5100482;28;20507;-83
2024/01/31 06:30:04;;;;;;;9.80;6.90;;;;;;;;;;5114515;28;20284;-83
2024/01/31 06:32:32;;;;;;;8.17;6.17;;;;;;;;;;5094386;28;20204;-83
2024/01/31 06:35:02;;;;;;;9.67;7.30;;;;;;;;;;5108028;28;20210;-83
2024/01/31 06:37:29;;;;;;;10.23;8.47;;;;;;;;;;5114210;28;20705;-83
2024/01/31 06:39:56;;;;;;;10.53;7.80;;;;;;;;;;5100225;28;20231;-84
2024/01/31 06:42:24;;;;;;;10.87;8.17;;;;;;;;;;5114039;28;20234;-83
2024/01/31 06:44:51;;;;;;;15.90;8.67;;;;;;;;;;5114259;28;20448;-83
2024/01/31 06:47:17;;;;;;;10.40;7.47;;;;;;;;;;5113554;28;20214;-83
2024/01/31 06:49:44;;;;;;;11.33;7.10;;;;;;;;;;5100186;28;20208;-83
2024/01/31 06:52:11;;;;;;;8.13;5.53;;;;;;;;;;5114292;28;20207;-83
2024/01/31 06:54:38;;;;;;;9.00;5.93;;;;;;;;;;5110670;28;20741;-83
2024/01/31 06:57:05;;;;;;;7.87;6.80;;;;;;;;;;5103522;28;20210;-83
2024/01/31 06:59:33;;;;;;;13.40;6.83;;;;;;;;;;5113310;28;20227;-82
2024/01/31 07:01:59;;;;;;;9.57;5.47;;;;;;;;;;5113917;28;20260;-83
2024/01/31 07:04:26;;;;;;;4.33;3.93;;;;;;;;;;5113389;28;20207;-83
2024/01/31 07:06:53;;;;;;;6.80;4.97;;;;;;;;;;5113731;28;20195;-83
2024/01/31 07:09:21;;;;;;;12.30;8.10;;;;;;;;;;5109267;28;20274;-82
2024/01/31 07:11:48;;;;;;;10.07;8.07;;;;;;;;;;5104708;28;20207;-82
2024/01/31 07:14:15;;;;;;;12.70;7.37;;;;;;;;;;5113233;28;20203;-82
2024/01/31 07:16:43;;;;;;;18.33;11.17;;;;;;;;;;5113598;28;20234;-82
2024/01/31 07:19:10;;;;;;;16.17;11.73;;;;;;;;;;5094758;28;20235;-82
2024/01/31 07:21:36;;;;;;;9.37;7.97;;;;;;;;;;5093188;28;20226;-82
2024/01/31 07:24:04;;;;;;;11.27;8.27;;;;;;;;;;5110812;28;20603;-82
2024/01/31 07:26:31;;;;;;;19.50;10.27;;;;;;;;;;5102069;28;20200;-82
2024/01/31 07:28:58;;;;;;;32.80;18.13;;;;;;;;;;5093051;28;20265;-83
2024/01/31 07:31:25;;;;;;;8.47;5.77;;;;;;;;;;5104883;28;20228;-83
2024/01/31 07:33:53;;;;;;;5.60;3.40;;;;;;;;;;5112977;28;20196;-84
2024/01/31 07:36:21;;;;;;;3.80;3.40;;;;;;;;;;5113074;28;20253;-83
2024/01/31 07:38:48;;;;;;;4.77;4.20;;;;;;;;;;5099136;28;20206;-83
2024/01/31 07:41:15;;;;;;;8.50;3.80;;;;;;;;;;5099159;28;20224;-83
2024/01/31 07:43:42;;;;;;;10.23;4.07;;;;;;;;;;5110366;28;20589;-83
2024/01/31 07:46:09;;;;;;;5.60;4.30;;;;;;;;;;5112541;28;20264;-82
2024/01/31 07:48:36;;;;;;;11.67;7.17;;;;;;;;;;5112425;28;20200;-82
2024/01/31 07:51:05;;;;;;;5.53;4.67;;;;;;;;;;5099784;28;20189;-81
2024/01/31 07:53:32;;;;;;;4.37;3.27;;;;;;;;;;5112227;28;20203;-81
2024/01/31 07:55:59;;;;;;;4.07;3.67;;;;;;;;;;5098835;28;20598;-82
2024/01/31 07:58:26;;;;;;;5.83;3.63;;;;;;;;;;5112424;28;20673;-81
2024/01/31 08:00:53;;;;;;;3.83;3.27;;;;;;;;;;5112597;28;20227;-81
2024/01/31 08:03:20;;;;;;;3.97;3.37;;;;;;;;;;5112583;28;20211;-81
2024/01/31 08:05:46;;;;;;;4.53;3.47;;;;;;;;;;5111811;28;20238;-81
2024/01/31 08:08:15;;;;;;;4.53;3.67;;;;;;;;;;5104583;28;20204;-81
2024/01/31 08:10:42;;;;;;;3.93;3.53;;;;;;;;;;5107451;28;20210;-81
2024/01/31 08:13:09;;;;;;;4.57;3.90;;;;;;;;;;5112230;28;20211;-81
2024/01/31 08:15:36;;;;;;;4.67;3.10;;;;;;;;;;5112007;28;20218;-81
2024/01/31 08:18:03;;;;;;;6.73;4.27;;;;;;;;;;5112147;28;20264;-81
2024/01/31 08:20:29;;;;;;;6.87;3.57;;;;;;;;;;5111663;28;20235;-82
2024/01/31 08:23:03;;;;;;;5.50;4.07;;;;;;;;;;5112081;28;20200;-81
2024/01/31 08:25:32;;;;;;;5.83;4.20;;;;;;;;;;5111712;28;20211;-81
2024/01/31 08:28:02;;;;;;;3.20;2.93;;;;;;;;;;5112005;28;20203;-81
2024/01/31 08:30:28;;;;;;;3.47;2.90;;;;;;;;;;5112141;28;20219;-81
2024/01/31 08:32:59;;;;;;;6.07;3.63;;;;;;;;;;5112074;28;20207;-82
2024/01/31 08:35:26;;;;;;;7.20;3.40;;;;;;;;;;5098498;28;20211;-82
2024/01/31 08:37:54;;;;;;;5.67;3.37;;;;;;;;;;5111941;28;20213;-81
2024/01/31 08:40:21;;;;;;;5.73;4.77;;;;;;;;;;5098205;28;20227;-82
2024/01/31 08:42:49;;;;;;;4.43;3.80;;;;;;;;;;5111609;28;20199;-82
2024/01/31 08:45:16;;;;;;;5.20;3.80;;;;;;;;;;5111581;28;20208;-82
2024/01/31 08:47:44;;;;;;;3.10;2.83;;;;;;;;;;5112128;28;20200;-81
2024/01/31 08:50:11;;;;;;;4.07;3.20;;;;;;;;;;5105507;28;20322;-82
2024/01/31 08:52:38;;;;;;;3.73;3.43;;;;;;;;;;5104558;28;20613;-82
2024/01/31 08:55:06;;;;;;;3.83;3.40;;;;;;;;;;5111834;28;20195;-82
2024/01/31 08:57:33;;;;;;;3.00;2.70;;;;;;;;;;5111220;28;20203;-81
2024/01/31 09:00:04;;;;;;;6.03;3.60;;;;;;;;;;5097940;28;20231;-82
2024/01/31 09:02:31;;;;;;;4.87;3.43;;;;;;;;;;5098102;28;20212;-82
2024/01/31 09:05:00;;;;;;;4.13;2.97;;;;;;;;;;5111464;28;20203;-81
2024/01/31 09:07:28;;;;;;;3.13;2.83;;;;;;;;;;5111855;28;20268;-82
2024/01/31 09:09:54;;;;;;;3.40;2.83;;;;;;;;;;5103615;28;20219;-82
2024/01/31 09:12:21;;;;;;;6.27;3.03;;;;;;;;;;5106196;28;20204;-82
2024/01/31 09:14:50;;;;;;;3.10;2.80;;;;;;;;;;5111380;28;20200;-82
2024/01/31 09:17:19;;;;;;;3.63;3.33;;;;;;;;;;5111524;28;20207;-83
2024/01/31 09:19:46;;;;;;;3.60;3.07;;;;;;;;;;5111107;28;20211;-82
2024/01/31 09:22:12;;;;;;;3.27;2.97;;;;;;;;;;5111540;28;20276;-82
2024/01/31 09:24:39;;;;;;;3.93;2.90;;;;;;;;;;5102226;28;20748;-82
2024/01/31 09:27:09;;;;;;;4.47;3.00;;;;;;;;;;5106736;28;20268;-82
2024/01/31 09:29:36;;;;;;;4.13;2.70;;;;;;;;;;5111140;28;20227;-82
2024/01/31 09:32:03;;;;;;;2.90;2.70;;;;;;;;;;5097635;28;20215;-85
2024/01/31 09:34:31;;;;;;;2.90;2.30;;;;;;;;;;5111434;28;20203;-82
2024/01/31 09:37:01;;;;;;;2.57;2.37;;;;;;;;;;5111439;28;20191;-82
2024/01/31 09:39:28;;;;;;;4.13;2.30;;;;;;;;;;5111165;28;20200;-82
2024/01/31 09:41:55;;;;;;;5.33;2.50;;;;;;;;;;5106295;28;20227;-82
2024/01/31 09:44:22;;;;;;;5.53;2.50;;;;;;;;;;5102002;28;20211;-82
2024/01/31 09:46:50;;;;;;;2.47;2.27;;;;;;;;;;5111316;28;20203;-82
2024/01/31 09:49:17;;;;;;;2.93;2.30;;;;;;;;;;5099347;28;20209;-82
2024/01/31 09:51:45;;;;;;;3.43;2.43;;;;;;;;;;5104162;28;20215;-82
2024/01/31 09:54:12;;;;;;;3.00;2.57;;;;;;;;;;5103262;28;20618;-82
2024/01/31 09:56:40;;;;;;;4.13;3.40;;;;;;;;;;5110409;28;20200;-83
2024/01/31 09:59:06;;;;;;;2.80;2.50;;;;;;;;;;5110806;28;20195;-82
2024/01/31 10:01:34;;;;;;;2.40;2.00;;;;;;;;;;5110782;28;20223;-83
2024/01/31 10:04:01;;;;;;;2.33;2.13;;;;;;;;;;5110778;28;20200;-81
2024/01/31 10:06:28;;;;;;;2.43;2.20;;;;;;;;;;5097378;28;20199;-82
2024/01/31 10:09:06;;;;;;;3.43;3.10;;;;;;;;;;5097152;28;20245;-86
2024/01/31 10:11:33;;;;;;;2.20;2.00;;;;;;;;;;5114753;28;20231;-82
2024/01/31 10:14:01;;;;;;;3.20;2.90;;;;;;;;;;5114637;28;20195;-82
2024/01/31 10:16:27;;;;;;;2.90;2.70;;;;;;;;;;5114610;28;20207;-82
2024/01/31 10:18:55;;;;;;;3.73;2.87;;;;;;;;;;5101196;28;20216;-82
2024/01/31 10:21:22;;;;;;;4.20;2.67;;;;;;;;;;5114196;28;20249;-82
2024/01/31 10:24:02;;;;;;;4.67;3.47;;;;;;;;;;5114567;28;20295;-82
2024/01/31 10:26:29;;;;;;;5.03;4.40;;;;;;;;;;5114506;28;20203;-83
2024/01/31 10:29:00;;;;;;;25.93;14.67;;;;;;;;;;5114620;28;20208;-83
2024/01/31 10:31:27;;;;;;;8.47;6.47;;;;;;;;;;5103153;28;20323;-82
2024/01/31 10:34:01;;;;;;;6.10;4.20;;;;;;;;;;5099183;28;20199;-82
2024/01/31 10:36:29;;;;;;;3.17;2.87;;;;;;;;;;5101333;28;20231;-82
2024/01/31 10:39:00;;;;;;;3.57;3.27;;;;;;;;;;5114089;28;20221;-82
2024/01/31 10:41:27;;;;;;;6.07;4.27;;;;;;;;;;5113636;28;20238;-82
2024/01/31 10:43:55;;;;;;;6.17;4.50;;;;;;;;;;5093710;28;20209;-82
2024/01/31 10:46:22;;;;;;;10.00;6.77;;;;;;;;;;5107181;28;20214;-83
2024/01/31 10:48:49;;;;;;;7.93;6.27;;;;;;;;;;5106718;28;20196;-82
2024/01/31 10:51:16;;;;;;;13.37;8.77;;;;;;;;;;5107014;28;20206;-83
2024/01/31 10:53:43;;;;;;;23.63;13.00;;;;;;;;;;5101721;28;20199;-83
2024/01/31 10:56:12;;;;;;;12.47;7.27;;;;;;;;;;5098793;28;20670;-83
2024/01/31 10:58:39;;;;;;;3.97;3.47;;;;;;;;;;5101967;28;20207;-83
2024/01/31 11:01:10;;;;;;;4.53;3.93;;;;;;;;;;5111555;28;20230;-84
2024/01/31 11:03:38;;;;;;;4.47;4.10;;;;;;;;;;5094155;28;20291;-86
2024/01/31 11:06:04;;;;;;;3.97;3.57;;;;;;;;;;5107026;28;20208;-82
2024/01/31 11:08:32;;;;;;;4.60;4.10;;;;;;;;;;5103327;28;20677;-82
2024/01/31 11:13:56;;;;;;;4.13;2.93;;;;;;;;;;5099891;28;20354;-83
2024/01/31 11:16:26;;;;;;;3.27;2.97;;;;;;;;;;5113647;28;20211;-82
2024/01/31 11:18:53;;;;;;;3.50;3.20;;;;;;;;;;5113430;28;20212;-82
2024/01/31 11:21:20;;;;;;;3.33;3.03;;;;;;;;;;5112117;28;20284;-82
2024/01/31 11:23:46;;;;;;;5.47;3.20;;;;;;;;;;5098105;28;20208;-83
2024/01/31 11:26:14;;;;;;;3.73;2.70;;;;;;;;;;5101566;28;20203;-82
2024/01/31 11:28:42;;;;;;;3.97;3.10;;;;;;;;;;5112902;28;20302;-83
2024/01/31 11:31:11;;;;;;;4.03;2.87;;;;;;;;;;5113092;28;20227;-82
2024/01/31 11:33:39;;;;;;;3.63;3.10;;;;;;;;;;5113238;28;20230;-87
2024/01/31 11:36:07;;;;;;;5.23;3.20;;;;;;;;;;5112891;28;20203;-83
2024/01/31 11:38:34;;;;;;;3.07;2.47;;;;;;;;;;5112776;28;20273;-82
2024/01/31 11:41:01;;;;;;;2.50;2.30;;;;;;;;;;5102223;28;20232;-83
2024/01/31 11:43:27;;;;;;;3.20;2.80;;;;;;;;;;5110165;28;20211;-82
2024/01/31 11:45:54;;;;;;;2.93;2.73;;;;;;;;;;5112751;28;20211;-83
2024/01/31 11:48:23;;;;;;;2.73;2.40;;;;;;;;;;5112311;28;20206;-83
2024/01/31 11:50:50;;;;;;;4.90;2.63;;;;;;;;;;5112492;28;20298;-83
2024/01/31 11:53:16;;;;;;;4.90;3.10;;;;;;;;;;5112955;28;20207;-83
2024/01/31 11:55:43;;;;;;;3.63;3.33;;;;;;;;;;5112716;28;20203;-82
2024/01/31 11:58:10;;;;;;;3.67;3.37;;;;;;;;;;5112678;28;20199;-86
2024/01/31 12:00:37;;;;;;;3.87;3.47;;;;;;;;;;5112681;28;20664;-82
2024/01/31 12:03:05;;;;;;;5.17;3.80;;;;;;;;;;5112439;28;20207;-82
2024/01/31 12:05:33;;;;;;;3.47;3.17;;;;;;;;;;5112266;28;20203;-82
2024/01/31 12:08:00;;;;;;;4.30;3.90;;;;;;;;;;5098365;28;20256;-82
2024/01/31 12:10:27;;;;;;;3.77;3.37;;;;;;;;;;5112440;28;20211;-82
2024/01/31 12:12:55;;;;;;;5.87;3.87;;;;;;;;;;5092583;28;20196;-82
2024/01/31 12:15:22;;;;;;;4.10;3.70;;;;;;;;;;5091869;28;20204;-82
2024/01/31 12:17:49;;;;;;;5.93;3.90;;;;;;;;;;5098651;28;20701;-82
2024/01/31 12:20:17;;;;;;;14.47;6.77;;;;;;;;;;5098678;28;20200;-81
2024/01/31 12:22:46;;;;;;;4.67;3.97;;;;;;;;;;5105487;28;20232;-82
2024/01/31 12:25:13;;;;;;;5.83;5.27;;;;;;;;;;5105669;28;20208;-82
2024/01/31 12:27:40;;;;;;;6.33;4.77;;;;;;;;;;5104978;28;20207;-82
2024/01/31 12:30:08;;;;;;;8.20;7.33;;;;;;;;;;5091428;28;20603;-82
2024/01/31 12:32:34;;;;;;;6.57;4.87;;;;;;;;;;5099352;28;20203;-82
2024/01/31 12:35:01;;;;;;;3.67;3.33;;;;;;;;;;5111529;28;20211;-82
2024/01/31 12:37:28;;;;;;;3.60;3.10;;;;;;;;;;5111487;28;20214;-82
2024/01/31 12:39:59;;;;;;;3.10;2.80;;;;;;;;;;5097822;28;20208;-82
2024/01/31 12:42:26;;;;;;;3.53;3.23;;;;;;;;;;5102751;28;20216;-82
2024/01/31 12:44:53;;;;;;;3.53;3.23;;;;;;;;;;5107170;28;20203;-82
2024/01/31 12:47:20;;;;;;;4.70;2.57;;;;;;;;;;5111567;28;20203;-82
2024/01/31 12:49:46;;;;;;;5.37;2.73;;;;;;;;;;5111829;28;20203;-82
2024/01/31 12:52:13;;;;;;;3.27;2.80;;;;;;;;;;5111868;28;20218;-86
2024/01/31 12:54:40;;;;;;;3.23;2.60;;;;;;;;;;5111571;28;20202;-82
2024/01/31 12:57:08;;;;;;;4.10;3.67;;;;;;;;;;5112000;28;20204;-82
2024/01/31 12:59:35;;;;;;;6.47;4.33;;;;;;;;;;5111104;28;20666;-82
2024/01/31 13:02:02;;;;;;;8.20;3.67;;;;;;;;;;5111674;28;20227;-82
2024/01/31 13:04:29;;;;;;;4.83;3.80;;;;;;;;;;5094247;28;20682;-81
2024/01/31 13:06:56;;;;;;;5.00;4.23;;;;;;;;;;5101849;28;20200;-82
2024/01/31 13:09:22;;;;;;;5.20;4.00;;;;;;;;;;5106972;28;20666;-82
2024/01/31 13:11:49;;;;;;;4.50;3.70;;;;;;;;;;5102823;28;20207;-82
2024/01/31 13:14:18;;;;;;;4.20;3.80;;;;;;;;;;5107023;28;20200;-82
2024/01/31 13:16:45;;;;;;;4.10;3.47;;;;;;;;;;5102622;28;20303;-82
2024/01/31 13:19:13;;;;;;;4.20;2.50;;;;;;;;;;5097810;28;20257;-82
2024/01/31 13:21:40;;;;;;;5.13;4.17;;;;;;;;;;5099017;28;20277;-81
2024/01/31 13:24:07;;;;;;;9.47;4.57;;;;;;;;;;5109974;28;20207;-82
2024/01/31 13:26:35;;;;;;;5.80;4.13;;;;;;;;;;5111030;28;20209;-82
2024/01/31 13:29:02;;;;;;;3.97;3.57;;;;;;;;;;5110871;28;20195;-82
2024/01/31 13:31:31;;;;;;;2.40;1.97;;;;;;;;;;5111263;28;20231;-82
2024/01/31 13:33:59;;;;;;;2.73;2.53;;;;;;;;;;5110952;28;20249;-81
2024/01/31 13:36:27;;;;;;;4.73;4.07;;;;;;;;;;5098555;28;20283;-82
2024/01/31 13:38:54;;;;;;;4.70;4.20;;;;;;;;;;5110462;28;20234;-82
2024/01/31 13:41:22;;;;;;;5.47;4.97;;;;;;;;;;5111200;28;20609;-82
2024/01/31 13:43:50;;;;;;;5.53;4.63;;;;;;;;;;5097619;28;20764;-82
2024/01/31 13:46:17;;;;;;;5.93;5.30;;;;;;;;;;5100476;28;20288;-83
2024/01/31 13:48:45;;;;;;;9.37;6.90;;;;;;;;;;5115067;28;20227;-82
2024/01/31 13:51:14;;;;;;;6.73;5.27;;;;;;;;;;5115340;28;20199;-83
2024/01/31 13:53:41;;;;;;;8.37;6.03;;;;;;;;;;5114993;28;20200;-82
2024/01/31 13:56:08;;;;;;;6.37;4.40;;;;;;;;;;5101388;28;20212;-82
2024/01/31 13:58:35;;;;;;;6.70;5.20;;;;;;;;;;5114409;28;20618;-82
2024/01/31 14:01:02;;;;;;;5.90;4.93;;;;;;;;;;5112820;28;20199;-82
2024/01/31 14:03:29;;;;;;;6.27;4.87;;;;;;;;;;5103988;28;20203;-82
2024/01/31 14:05:59;;;;;;;5.93;4.80;;;;;;;;;;5112261;28;20204;-81
2024/01/31 14:08:26;;;;;;;6.97;6.30;;;;;;;;;;5104472;28;20218;-82
2024/01/31 14:10:53;;;;;;;8.93;5.97;;;;;;;;;;5101123;28;20252;-82
2024/01/31 14:13:20;;;;;;;14.13;7.70;;;;;;;;;;5114562;28;20203;-82
2024/01/31 14:15:46;;;;;;;15.10;8.50;;;;;;;;;;5097955;28;20208;-81
2024/01/31 14:18:13;;;;;;;8.87;6.93;;;;;;;;;;5105071;28;20204;-82
2024/01/31 14:20:40;;;;;;;9.87;7.17;;;;;;;;;;5100871;28;20205;-82
2024/01/31 14:23:08;;;;;;;12.03;7.93;;;;;;;;;;5103564;28;20752;-82
2024/01/31 14:25:36;;;;;;;15.10;7.57;;;;;;;;;;5097335;28;20568;-82
2024/01/31 14:28:02;;;;;;;8.60;6.27;;;;;;;;;;5114267;28;20260;-82
2024/01/31 14:30:29;;;;;;;23.17;10.30;;;;;;;;;;5114676;28;20227;-82
2024/01/31 14:32:57;;;;;;;10.70;7.40;;;;;;;;;;5114002;28;20207;-82
2024/01/31 14:35:24;;;;;;;11.83;6.77;;;;;;;;;;5113237;28;20697;-81
2024/01/31 14:37:51;;;;;;;53.00;33.00;;;;;;;;;;5114517;28;20203;-82
2024/01/31 14:40:19;;;;;;;29.83;19.23;;;;;;;;;;5109576;28;20196;-82
2024/01/31 14:42:46;;;;;;;26.63;17.53;;;;;;;;;;5105837;28;20227;-81